Terminal Aerodrome Forecast
Issued by NWS Shreveport, LA

Home | Current Version | Previous Version | Text Only | Print | Product List | Glossary On
Versions: 1 2 3 4 5 6 7 8 9 10 11 12 13 14 15 16 17 18 19 20 21 22 23 24 25
000
FTUS44 KSHV 020657 AAA
TAFELD
TAF AMD
KELD 020657Z 0207/0306 VRB04KT P6SM VCTS BKN040CB
      TEMPO 0207/0209 VRB30G50KT 1SM TSRAGR BR BKN010CB
     FM021100 36005KT P6SM VCTS BKN020CB
      TEMPO 0211/0215 3SM TSRA BR BKN015CB
     FM021500 34006KT P6SM VCSH BKN020
     FM022200 32006KT P6SM BKN025
     FM030000 32004KT P6SM SCT030 BKN040=

USA.gov is the U.S. government's official web portal to all federal, state and local government web resources and services.